sensor_id;sensor_type;location;lat;lon;timestamp;temperature;humidity
3416;DHT22;1721;51.238;9.562;2022-11-20T00:02:16;-1.50;80.40
3416;DHT22;1721;51.238;9.562;2022-11-20T00:04:41;-1.50;79.30
3416;DHT22;1721;51.238;9.562;2022-11-20T00:07:07;-1.60;79.80
3416;DHT22;1721;51.238;9.562;2022-11-20T00:09:32;-1.50;79.80
3416;DHT22;1721;51.238;9.562;2022-11-20T00:11:58;-1.60;79.90
3416;DHT22;1721;51.238;9.562;2022-11-20T00:14:24;-1.60;80.10
3416;DHT22;1721;51.238;9.562;2022-11-20T00:16:49;-1.60;79.90
3416;DHT22;1721;51.238;9.562;2022-11-20T00:19:15;-1.50;79.80
3416;DHT22;1721;51.238;9.562;2022-11-20T00:21:40;-1.50;79.40
3416;DHT22;1721;51.238;9.562;2022-11-20T00:24:08;-1.60;79.50
3416;DHT22;1721;51.238;9.562;2022-11-20T00:26:34;-1.60;79.50
3416;DHT22;1721;51.238;9.562;2022-11-20T00:29:00;-1.50;79.30
3416;DHT22;1721;51.238;9.562;2022-11-20T00:31:27;-1.40;79.10
3416;DHT22;1721;51.238;9.562;2022-11-20T00:33:53;-1.50;78.90
3416;DHT22;1721;51.238;9.562;2022-11-20T00:36:23;-1.50;79.00
3416;DHT22;1721;51.238;9.562;2022-11-20T00:38:53;-1.50;79.40
3416;DHT22;1721;51.238;9.562;2022-11-20T00:41:19;-1.60;79.50
3416;DHT22;1721;51.238;9.562;2022-11-20T00:43:45;-1.50;79.70
3416;DHT22;1721;51.238;9.562;2022-11-20T00:46:14;-1.50;79.20
3416;DHT22;1721;51.238;9.562;2022-11-20T00:48:39;-1.70;79.10
3416;DHT22;1721;51.238;9.562;2022-11-20T00:51:05;-1.60;79.70
3416;DHT22;1721;51.238;9.562;2022-11-20T00:53:31;-1.60;79.50
3416;DHT22;1721;51.238;9.562;2022-11-20T00:55:58;-1.50;79.30
3416;DHT22;1721;51.238;9.562;2022-11-20T00:58:28;-1.50;79.00
3416;DHT22;1721;51.238;9.562;2022-11-20T01:01:00;-1.50;78.90
3416;DHT22;1721;51.238;9.562;2022-11-20T01:03:26;-1.50;78.50
3416;DHT22;1721;51.238;9.562;2022-11-20T01:05:51;-1.60;78.40
3416;DHT22;1721;51.238;9.562;2022-11-20T01:08:17;-1.70;79.00
3416;DHT22;1721;51.238;9.562;2022-11-20T01:10:42;-1.70;79.20
3416;DHT22;1721;51.238;9.562;2022-11-20T01:13:08;-1.70;79.00
3416;DHT22;1721;51.238;9.562;2022-11-20T01:15:52;-1.70;79.00
3416;DHT22;1721;51.238;9.562;2022-11-20T01:18:17;-1.60;78.90
3416;DHT22;1721;51.238;9.562;2022-11-20T01:20:43;-1.60;78.90
3416;DHT22;1721;51.238;9.562;2022-11-20T01:23:09;-1.70;78.50
3416;DHT22;1721;51.238;9.562;2022-11-20T01:25:34;-1.70;78.60
3416;DHT22;1721;51.238;9.562;2022-11-20T01:28:00;-1.70;78.60
3416;DHT22;1721;51.238;9.562;2022-11-20T01:30:26;-1.90;78.30
3416;DHT22;1721;51.238;9.562;2022-11-20T01:32:51;-1.80;78.70
3416;DHT22;1721;51.238;9.562;2022-11-20T01:35:17;-1.80;78.50
3416;DHT22;1721;51.238;9.562;2022-11-20T01:37:42;-1.80;78.50
3416;DHT22;1721;51.238;9.562;2022-11-20T01:40:08;-1.80;78.30
3416;DHT22;1721;51.238;9.562;2022-11-20T01:42:34;-1.80;78.40
3416;DHT22;1721;51.238;9.562;2022-11-20T01:45:58;-1.70;78.50
3416;DHT22;1721;51.238;9.562;2022-11-20T01:48:27;-1.70;78.60
3416;DHT22;1721;51.238;9.562;2022-11-20T01:50:54;-1.80;78.80
3416;DHT22;1721;51.238;9.562;2022-11-20T01:53:25;-1.90;79.00
3416;DHT22;1721;51.238;9.562;2022-11-20T01:55:54;-1.80;79.30
3416;DHT22;1721;51.238;9.562;2022-11-20T01:58:24;-1.80;79.20
3416;DHT22;1721;51.238;9.562;2022-11-20T02:00:50;-1.70;78.80
3416;DHT22;1721;51.238;9.562;2022-11-20T02:03:18;-1.70;78.60
3416;DHT22;1721;51.238;9.562;2022-11-20T02:08:44;-1.80;78.30
3416;DHT22;1721;51.238;9.562;2022-11-20T02:11:09;-1.80;78.20
3416;DHT22;1721;51.238;9.562;2022-11-20T02:13:35;-1.80;78.40
3416;DHT22;1721;51.238;9.562;2022-11-20T02:16:22;-1.80;78.30
3416;DHT22;1721;51.238;9.562;2022-11-20T02:18:50;-1.80;78.60
3416;DHT22;1721;51.238;9.562;2022-11-20T02:21:30;-1.80;79.20
3416;DHT22;1721;51.238;9.562;2022-11-20T02:24:10;-2.00;79.30
3416;DHT22;1721;51.238;9.562;2022-11-20T02:26:41;-2.10;80.60
3416;DHT22;1721;51.238;9.562;2022-11-20T02:29:07;-2.50;81.30
3416;DHT22;1721;51.238;9.562;2022-11-20T02:31:37;-2.50;81.90
3416;DHT22;1721;51.238;9.562;2022-11-20T02:34:03;-2.40;81.10
3416;DHT22;1721;51.238;9.562;2022-11-20T02:36:30;-2.30;81.00
3416;DHT22;1721;51.238;9.562;2022-11-20T02:38:57;-2.20;80.60
3416;DHT22;1721;51.238;9.562;2022-11-20T02:41:34;-2.20;80.70
3416;DHT22;1721;51.238;9.562;2022-11-20T02:44:00;-2.00;80.70
3416;DHT22;1721;51.238;9.562;2022-11-20T02:46:26;-2.00;80.40
3416;DHT22;1721;51.238;9.562;2022-11-20T02:48:51;-2.20;80.30
3416;DHT22;1721;51.238;9.562;2022-11-20T02:51:17;-2.10;81.10
3416;DHT22;1721;51.238;9.562;2022-11-20T02:53:42;-2.00;80.50
3416;DHT22;1721;51.238;9.562;2022-11-20T02:56:08;-1.90;80.10
3416;DHT22;1721;51.238;9.562;2022-11-20T02:58:34;-1.80;79.70
3416;DHT22;1721;51.238;9.562;2022-11-20T03:00:59;-1.80;80.00
3416;DHT22;1721;51.238;9.562;2022-11-20T03:03:25;-1.80;78.90
3416;DHT22;1721;51.238;9.562;2022-11-20T03:05:50;-1.80;78.90
3416;DHT22;1721;51.238;9.562;2022-11-20T03:08:16;-1.80;78.80
3416;DHT22;1721;51.238;9.562;2022-11-20T03:10:41;-1.80;78.80
3416;DHT22;1721;51.238;9.562;2022-11-20T03:13:07;-1.80;79.00
3416;DHT22;1721;51.238;9.562;2022-11-20T03:15:33;-1.90;79.10
3416;DHT22;1721;51.238;9.562;2022-11-20T03:17:58;-1.90;79.10
3416;DHT22;1721;51.238;9.562;2022-11-20T03:20:24;-1.80;78.90
3416;DHT22;1721;51.238;9.562;2022-11-20T03:22:49;-1.80;78.50
3416;DHT22;1721;51.238;9.562;2022-11-20T03:25:15;-1.70;78.50
3416;DHT22;1721;51.238;9.562;2022-11-20T03:27:41;-1.80;78.00
3416;DHT22;1721;51.238;9.562;2022-11-20T03:30:07;-1.80;77.90
3416;DHT22;1721;51.238;9.562;2022-11-20T03:32:32;-1.80;78.00
3416;DHT22;1721;51.238;9.562;2022-11-20T03:34:58;-1.90;77.50
3416;DHT22;1721;51.238;9.562;2022-11-20T03:37:23;-1.90;77.50
3416;DHT22;1721;51.238;9.562;2022-11-20T03:39:55;-1.90;77.40
3416;DHT22;1721;51.238;9.562;2022-11-20T03:42:21;-1.90;77.30
3416;DHT22;1721;51.238;9.562;2022-11-20T03:45:05;-1.90;77.80
3416;DHT22;1721;51.238;9.562;2022-11-20T03:47:31;-1.90;77.90
3416;DHT22;1721;51.238;9.562;2022-11-20T03:49:57;-1.80;78.60
3416;DHT22;1721;51.238;9.562;2022-11-20T03:52:22;-2.00;79.80
3416;DHT22;1721;51.238;9.562;2022-11-20T03:54:48;-2.20;81.20
3416;DHT22;1721;51.238;9.562;2022-11-20T03:57:13;-2.10;82.60
3416;DHT22;1721;51.238;9.562;2022-11-20T03:59:39;-1.80;82.40
3416;DHT22;1721;51.238;9.562;2022-11-20T04:02:04;-1.50;81.90
3416;DHT22;1721;51.238;9.562;2022-11-20T04:04:30;-1.20;81.30
3416;DHT22;1721;51.238;9.562;2022-11-20T04:06:55;-1.00;81.00
3416;DHT22;1721;51.238;9.562;2022-11-20T04:09:21;-1.00;81.40
3416;DHT22;1721;51.238;9.562;2022-11-20T04:11:46;-0.90;82.10
3416;DHT22;1721;51.238;9.562;2022-11-20T04:14:16;-0.70;82.40
3416;DHT22;1721;51.238;9.562;2022-11-20T04:16:42;-0.50;82.50
3416;DHT22;1721;51.238;9.562;2022-11-20T04:19:13;-0.40;82.40
3416;DHT22;1721;51.238;9.562;2022-11-20T04:21:39;-0.20;82.70
3416;DHT22;1721;51.238;9.562;2022-11-20T04:24:06;-0.10;83.00
3416;DHT22;1721;51.238;9.562;2022-11-20T04:26:31;0.10;83.00
3416;DHT22;1721;51.238;9.562;2022-11-20T04:28:58;0.20;82.80
3416;DHT22;1721;51.238;9.562;2022-11-20T04:31:26;0.30;83.20
3416;DHT22;1721;51.238;9.562;2022-11-20T04:33:52;0.20;82.50
3416;DHT22;1721;51.238;9.562;2022-11-20T04:36:22;0.10;83.00
3416;DHT22;1721;51.238;9.562;2022-11-20T04:38:56;0.30;83.00
3416;DHT22;1721;51.238;9.562;2022-11-20T04:41:24;0.50;82.90
3416;DHT22;1721;51.238;9.562;2022-11-20T04:43:55;0.50;83.50
3416;DHT22;1721;51.238;9.562;2022-11-20T04:46:33;0.60;84.80
3416;DHT22;1721;51.238;9.562;2022-11-20T04:49:00;0.70;86.10
3416;DHT22;1721;51.238;9.562;2022-11-20T04:51:26;0.70;86.70
3416;DHT22;1721;51.238;9.562;2022-11-20T04:53:52;0.70;86.80
3416;DHT22;1721;51.238;9.562;2022-11-20T04:56:17;0.90;86.80
3416;DHT22;1721;51.238;9.562;2022-11-20T04:58:43;1.00;86.20
3416;DHT22;1721;51.238;9.562;2022-11-20T05:01:14;1.10;86.60
3416;DHT22;1721;51.238;9.562;2022-11-20T05:03:43;1.20;87.00
3416;DHT22;1721;51.238;9.562;2022-11-20T05:06:11;1.20;88.10
3416;DHT22;1721;51.238;9.562;2022-11-20T05:08:37;1.20;88.80
3416;DHT22;1721;51.238;9.562;2022-11-20T05:11:04;1.10;90.00
3416;DHT22;1721;51.238;9.562;2022-11-20T05:13:30;1.30;89.80
3416;DHT22;1721;51.238;9.562;2022-11-20T05:16:01;1.40;89.80
3416;DHT22;1721;51.238;9.562;2022-11-20T05:18:27;1.70;89.50
3416;DHT22;1721;51.238;9.562;2022-11-20T05:20:59;1.90;88.80
3416;DHT22;1721;51.238;9.562;2022-11-20T05:23:25;2.10;88.40
3416;DHT22;1721;51.238;9.562;2022-11-20T05:25:55;2.00;87.30
3416;DHT22;1721;51.238;9.562;2022-11-20T05:28:21;2.10;86.20
3416;DHT22;1721;51.238;9.562;2022-11-20T05:30:47;2.00;84.10
3416;DHT22;1721;51.238;9.562;2022-11-20T05:33:13;1.70;83.20
3416;DHT22;1721;51.238;9.562;2022-11-20T05:35:39;1.30;84.20
3416;DHT22;1721;51.238;9.562;2022-11-20T05:38:04;1.30;84.60
3416;DHT22;1721;51.238;9.562;2022-11-20T05:40:30;1.20;84.30
3416;DHT22;1721;51.238;9.562;2022-11-20T05:42:55;1.30;84.30
3416;DHT22;1721;51.238;9.562;2022-11-20T05:45:21;1.30;83.90
3416;DHT22;1721;51.238;9.562;2022-11-20T05:47:46;1.00;85.80
3416;DHT22;1721;51.238;9.562;2022-11-20T05:50:13;0.70;86.00
3416;DHT22;1721;51.238;9.562;2022-11-20T05:52:38;0.90;86.60
3416;DHT22;1721;51.238;9.562;2022-11-20T05:55:04;1.20;85.90
3416;DHT22;1721;51.238;9.562;2022-11-20T05:57:31;1.30;85.40
3416;DHT22;1721;51.238;9.562;2022-11-20T05:59:56;1.40;85.80
3416;DHT22;1721;51.238;9.562;2022-11-20T06:02:22;1.40;85.70
3416;DHT22;1721;51.238;9.562;2022-11-20T06:04:47;1.50;85.50
3416;DHT22;1721;51.238;9.562;2022-11-20T06:07:13;1.50;85.80
3416;DHT22;1721;51.238;9.562;2022-11-20T06:09:39;1.40;87.90
3416;DHT22;1721;51.238;9.562;2022-11-20T06:12:05;1.50;87.20
3416;DHT22;1721;51.238;9.562;2022-11-20T06:14:30;1.50;87.60
3416;DHT22;1721;51.238;9.562;2022-11-20T06:16:56;1.40;88.70
3416;DHT22;1721;51.238;9.562;2022-11-20T06:19:22;1.30;89.10
3416;DHT22;1721;51.238;9.562;2022-11-20T06:21:48;1.50;90.00
3416;DHT22;1721;51.238;9.562;2022-11-20T06:24:15;1.60;90.10
3416;DHT22;1721;51.238;9.562;2022-11-20T06:26:40;1.50;89.80
3416;DHT22;1721;51.238;9.562;2022-11-20T06:29:06;1.70;90.00
3416;DHT22;1721;51.238;9.562;2022-11-20T06:31:32;1.70;89.50
3416;DHT22;1721;51.238;9.562;2022-11-20T06:34:04;1.80;89.80
3416;DHT22;1721;51.238;9.562;2022-11-20T06:36:31;1.90;89.20
3416;DHT22;1721;51.238;9.562;2022-11-20T06:38:57;1.60;88.60
3416;DHT22;1721;51.238;9.562;2022-11-20T06:41:23;1.50;89.90
3416;DHT22;1721;51.238;9.562;2022-11-20T06:43:49;1.50;89.90
3416;DHT22;1721;51.238;9.562;2022-11-20T06:46:16;1.60;89.90
3416;DHT22;1721;51.238;9.562;2022-11-20T06:48:45;1.60;89.50
3416;DHT22;1721;51.238;9.562;2022-11-20T06:51:11;1.60;89.40
3416;DHT22;1721;51.238;9.562;2022-11-20T06:53:37;1.70;89.10
3416;DHT22;1721;51.238;9.562;2022-11-20T06:56:03;1.80;88.60
3416;DHT22;1721;51.238;9.562;2022-11-20T06:58:30;1.80;87.90
3416;DHT22;1721;51.238;9.562;2022-11-20T07:01:00;1.80;87.60
3416;DHT22;1721;51.238;9.562;2022-11-20T07:03:26;1.90;86.90
3416;DHT22;1721;51.238;9.562;2022-11-20T07:05:54;1.90;86.40
3416;DHT22;1721;51.238;9.562;2022-11-20T07:08:19;1.80;86.40
3416;DHT22;1721;51.238;9.562;2022-11-20T07:10:45;1.90;86.70
3416;DHT22;1721;51.238;9.562;2022-11-20T07:13:10;1.90;86.10
3416;DHT22;1721;51.238;9.562;2022-11-20T07:15:36;1.90;85.80
3416;DHT22;1721;51.238;9.562;2022-11-20T07:18:01;1.90;85.80
3416;DHT22;1721;51.238;9.562;2022-11-20T07:20:27;1.90;85.80
3416;DHT22;1721;51.238;9.562;2022-11-20T07:22:54;1.90;85.70
3416;DHT22;1721;51.238;9.562;2022-11-20T07:25:20;1.90;85.50
3416;DHT22;1721;51.238;9.562;2022-11-20T07:27:45;1.80;84.40
3416;DHT22;1721;51.238;9.562;2022-11-20T07:30:11;1.90;84.60
3416;DHT22;1721;51.238;9.562;2022-11-20T07:32:37;2.00;83.90
3416;DHT22;1721;51.238;9.562;2022-11-20T07:35:03;1.90;83.50
3416;DHT22;1721;51.238;9.562;2022-11-20T07:37:29;1.90;83.60
3416;DHT22;1721;51.238;9.562;2022-11-20T07:39:54;2.00;83.40
3416;DHT22;1721;51.238;9.562;2022-11-20T07:42:20;1.80;82.90
3416;DHT22;1721;51.238;9.562;2022-11-20T07:44:45;1.80;83.50
3416;DHT22;1721;51.238;9.562;2022-11-20T07:47:11;1.30;82.90
3416;DHT22;1721;51.238;9.562;2022-11-20T07:49:36;1.20;83.20
3416;DHT22;1721;51.238;9.562;2022-11-20T07:52:02;1.10;83.00
3416;DHT22;1721;51.238;9.562;2022-11-20T07:54:27;0.80;83.30
3416;DHT22;1721;51.238;9.562;2022-11-20T07:56:54;0.80;83.80
3416;DHT22;1721;51.238;9.562;2022-11-20T07:59:19;0.90;83.50
3416;DHT22;1721;51.238;9.562;2022-11-20T08:01:45;0.90;83.60
3416;DHT22;1721;51.238;9.562;2022-11-20T08:04:10;1.00;83.50
3416;DHT22;1721;51.238;9.562;2022-11-20T08:06:36;1.00;83.30
3416;DHT22;1721;51.238;9.562;2022-11-20T08:09:02;0.60;84.10
3416;DHT22;1721;51.238;9.562;2022-11-20T08:11:28;0.70;84.50
3416;DHT22;1721;51.238;9.562;2022-11-20T08:14:12;0.90;84.10
3416;DHT22;1721;51.238;9.562;2022-11-20T08:16:46;0.80;84.00
3416;DHT22;1721;51.238;9.562;2022-11-20T08:19:14;0.80;84.40
3416;DHT22;1721;51.238;9.562;2022-11-20T08:21:40;0.90;84.50
3416;DHT22;1721;51.238;9.562;2022-11-20T08:24:06;0.80;84.60
3416;DHT22;1721;51.238;9.562;2022-11-20T08:26:33;0.90;84.50
3416;DHT22;1721;51.238;9.562;2022-11-20T08:28:58;0.90;84.40
3416;DHT22;1721;51.238;9.562;2022-11-20T08:31:26;1.00;85.00
3416;DHT22;1721;51.238;9.562;2022-11-20T08:33:52;1.00;85.00
3416;DHT22;1721;51.238;9.562;2022-11-20T08:36:18;1.00;84.80
3416;DHT22;1721;51.238;9.562;2022-11-20T08:38:53;1.00;85.00
3416;DHT22;1721;51.238;9.562;2022-11-20T08:41:19;0.90;85.10
3416;DHT22;1721;51.238;9.562;2022-11-20T08:43:58;0.70;85.90
3416;DHT22;1721;51.238;9.562;2022-11-20T08:46:26;0.80;86.90
3416;DHT22;1721;51.238;9.562;2022-11-20T08:48:52;1.00;86.40
3416;DHT22;1721;51.238;9.562;2022-11-20T08:51:19;1.20;86.50
3416;DHT22;1721;51.238;9.562;2022-11-20T08:53:44;0.90;86.00
3416;DHT22;1721;51.238;9.562;2022-11-20T08:56:10;1.00;87.10
3416;DHT22;1721;51.238;9.562;2022-11-20T08:58:37;1.20;86.70
3416;DHT22;1721;51.238;9.562;2022-11-20T09:01:02;1.30;85.90
3416;DHT22;1721;51.238;9.562;2022-11-20T09:03:28;1.20;85.20
3416;DHT22;1721;51.238;9.562;2022-11-20T09:06:02;1.10;86.00
3416;DHT22;1721;51.238;9.562;2022-11-20T09:08:28;1.00;86.10
3416;DHT22;1721;51.238;9.562;2022-11-20T09:10:55;0.90;86.40
3416;DHT22;1721;51.238;9.562;2022-11-20T09:13:22;0.70;87.20
3416;DHT22;1721;51.238;9.562;2022-11-20T09:15:53;0.70;87.50
3416;DHT22;1721;51.238;9.562;2022-11-20T09:18:19;1.00;87.50
3416;DHT22;1721;51.238;9.562;2022-11-20T09:20:45;1.10;87.40
3416;DHT22;1721;51.238;9.562;2022-11-20T09:23:10;1.30;87.00
3416;DHT22;1721;51.238;9.562;2022-11-20T09:25:36;1.40;87.50
3416;DHT22;1721;51.238;9.562;2022-11-20T09:28:01;1.60;86.30
3416;DHT22;1721;51.238;9.562;2022-11-20T09:30:27;1.60;86.10
3416;DHT22;1721;51.238;9.562;2022-11-20T09:32:53;1.60;86.50
3416;DHT22;1721;51.238;9.562;2022-11-20T09:35:18;1.70;86.50
3416;DHT22;1721;51.238;9.562;2022-11-20T09:37:45;1.70;86.40
3416;DHT22;1721;51.238;9.562;2022-11-20T09:40:29;1.50;87.30
3416;DHT22;1721;51.238;9.562;2022-11-20T09:56:25;2.70;86.50
3416;DHT22;1721;51.238;9.562;2022-11-20T09:58:53;1.90;86.20
3416;DHT22;1721;51.238;9.562;2022-11-20T10:01:22;1.70;87.00
3416;DHT22;1721;51.238;9.562;2022-11-20T10:09:02;2.30;88.00
3416;DHT22;1721;51.238;9.562;2022-11-20T10:25:19;4.10;82.90
3416;DHT22;1721;51.238;9.562;2022-11-20T10:28:10;4.10;83.20
3416;DHT22;1721;51.238;9.562;2022-11-20T10:30:42;3.90;83.20
3416;DHT22;1721;51.238;9.562;2022-11-20T10:33:21;4.20;83.20
3416;DHT22;1721;51.238;9.562;2022-11-20T10:36:08;4.40;82.00
3416;DHT22;1721;51.238;9.562;2022-11-20T10:38:44;4.30;81.80
3416;DHT22;1721;51.238;9.562;2022-11-20T10:41:24;4.30;82.00
3416;DHT22;1721;51.238;9.562;2022-11-20T10:44:05;4.30;81.90
3416;DHT22;1721;51.238;9.562;2022-11-20T10:46:49;4.30;81.50
3416;DHT22;1721;51.238;9.562;2022-11-20T10:49:16;4.20;81.90
3416;DHT22;1721;51.238;9.562;2022-11-20T10:57:08;3.60;83.00
3416;DHT22;1721;51.238;9.562;2022-11-20T10:59:57;3.60;82.80
3416;DHT22;1721;51.238;9.562;2022-11-20T11:02:50;3.50;82.70
3416;DHT22;1721;51.238;9.562;2022-11-20T11:05:32;3.20;83.60
3416;DHT22;1721;51.238;9.562;2022-11-20T11:07:58;2.80;85.00
3416;DHT22;1721;51.238;9.562;2022-11-20T11:10:51;2.70;85.40
3416;DHT22;1721;51.238;9.562;2022-11-20T11:13:25;2.70;85.40
3416;DHT22;1721;51.238;9.562;2022-11-20T11:15:51;2.70;85.60
3416;DHT22;1721;51.238;9.562;2022-11-20T11:18:25;2.70;85.60
3416;DHT22;1721;51.238;9.562;2022-11-20T11:20:53;2.70;86.10
3416;DHT22;1721;51.238;9.562;2022-11-20T11:23:40;2.60;86.60
3416;DHT22;1721;51.238;9.562;2022-11-20T11:26:22;2.70;86.80
3416;DHT22;1721;51.238;9.562;2022-11-20T11:29:02;2.80;86.90
3416;DHT22;1721;51.238;9.562;2022-11-20T11:31:32;2.90;86.80
3416;DHT22;1721;51.238;9.562;2022-11-20T11:34:05;3.00;86.90
3416;DHT22;1721;51.238;9.562;2022-11-20T11:36:33;2.90;87.10
3416;DHT22;1721;51.238;9.562;2022-11-20T11:39:00;3.00;87.30
3416;DHT22;1721;51.238;9.562;2022-11-20T11:41:31;3.10;87.30
3416;DHT22;1721;51.238;9.562;2022-11-20T11:44:02;3.00;87.40
3416;DHT22;1721;51.238;9.562;2022-11-20T11:46:53;3.00;87.30
3416;DHT22;1721;51.238;9.562;2022-11-20T11:49:20;2.90;86.70
3416;DHT22;1721;51.238;9.562;2022-11-20T11:52:00;2.70;87.00
3416;DHT22;1721;51.238;9.562;2022-11-20T11:54:57;2.60;88.30
3416;DHT22;1721;51.238;9.562;2022-11-20T11:57:45;2.30;89.00
3416;DHT22;1721;51.238;9.562;2022-11-20T12:00:13;2.00;89.90
3416;DHT22;1721;51.238;9.562;2022-11-20T12:12:53;1.90;90.30
3416;DHT22;1721;51.238;9.562;2022-11-20T12:15:28;2.00;90.00
3416;DHT22;1721;51.238;9.562;2022-11-20T12:17:55;2.10;89.60
3416;DHT22;1721;51.238;9.562;2022-11-20T12:20:24;2.10;89.70
3416;DHT22;1721;51.238;9.562;2022-11-20T12:23:19;2.10;90.00
3416;DHT22;1721;51.238;9.562;2022-11-20T12:25:48;2.10;89.80
3416;DHT22;1721;51.238;9.562;2022-11-20T12:28:28;2.20;89.90
3416;DHT22;1721;51.238;9.562;2022-11-20T12:39:20;2.30;90.20
3416;DHT22;1721;51.238;9.562;2022-11-20T12:45:06;2.20;90.20
3416;DHT22;1721;51.238;9.562;2022-11-20T12:53:05;2.20;90.50
3416;DHT22;1721;51.238;9.562;2022-11-20T12:58:46;2.40;90.60
3416;DHT22;1721;51.238;9.562;2022-11-20T13:01:50;2.50;90.30
3416;DHT22;1721;51.238;9.562;2022-11-20T13:07:06;2.80;90.10
3416;DHT22;1721;51.238;9.562;2022-11-20T13:09:42;2.90;90.00
3416;DHT22;1721;51.238;9.562;2022-11-20T13:12:24;2.90;89.90
3416;DHT22;1721;51.238;9.562;2022-11-20T13:14:58;2.90;90.00
3416;DHT22;1721;51.238;9.562;2022-11-20T13:17:42;2.80;90.30
3416;DHT22;1721;51.238;9.562;2022-11-20T13:20:16;2.70;90.30
3416;DHT22;1721;51.238;9.562;2022-11-20T13:22:53;2.60;90.30
3416;DHT22;1721;51.238;9.562;2022-11-20T13:27:56;2.80;90.20
3416;DHT22;1721;51.238;9.562;2022-11-20T13:30:26;2.70;90.20
3416;DHT22;1721;51.238;9.562;2022-11-20T13:32:58;2.80;90.20
3416;DHT22;1721;51.238;9.562;2022-11-20T13:35:33;2.80;90.00
3416;DHT22;1721;51.238;9.562;2022-11-20T13:38:18;2.80;90.30
3416;DHT22;1721;51.238;9.562;2022-11-20T13:40:57;2.80;90.40
3416;DHT22;1721;51.238;9.562;2022-11-20T13:43:41;2.90;90.50
3416;DHT22;1721;51.238;9.562;2022-11-20T13:46:08;3.10;90.40
3416;DHT22;1721;51.238;9.562;2022-11-20T13:48:43;3.10;90.40
3416;DHT22;1721;51.238;9.562;2022-11-20T13:51:31;3.10;90.30
3416;DHT22;1721;51.238;9.562;2022-11-20T13:57:25;3.60;90.10
3416;DHT22;1721;51.238;9.562;2022-11-20T14:00:16;3.70;89.90
3416;DHT22;1721;51.238;9.562;2022-11-20T14:02:44;3.80;89.30
3416;DHT22;1721;51.238;9.562;2022-11-20T14:05:22;3.70;88.90
3416;DHT22;1721;51.238;9.562;2022-11-20T14:07:50;3.70;88.80
3416;DHT22;1721;51.238;9.562;2022-11-20T14:10:27;3.60;88.80
3416;DHT22;1721;51.238;9.562;2022-11-20T14:12:53;3.60;88.80
3416;DHT22;1721;51.238;9.562;2022-11-20T14:17:50;3.40;89.20
3416;DHT22;1721;51.238;9.562;2022-11-20T14:20:16;3.40;89.50
3416;DHT22;1721;51.238;9.562;2022-11-20T14:22:50;3.40;89.40
3416;DHT22;1721;51.238;9.562;2022-11-20T14:27:43;3.40;89.30
3416;DHT22;1721;51.238;9.562;2022-11-20T14:32:41;3.30;89.30
3416;DHT22;1721;51.238;9.562;2022-11-20T14:35:10;3.30;89.40
3416;DHT22;1721;51.238;9.562;2022-11-20T14:37:39;3.40;89.50
3416;DHT22;1721;51.238;9.562;2022-11-20T14:42:48;3.40;89.40
3416;DHT22;1721;51.238;9.562;2022-11-20T14:45:14;3.40;89.50
3416;DHT22;1721;51.238;9.562;2022-11-20T14:47:41;3.40;89.60
3416;DHT22;1721;51.238;9.562;2022-11-20T14:50:16;3.50;89.60
3416;DHT22;1721;51.238;9.562;2022-11-20T14:52:53;3.50;89.60
3416;DHT22;1721;51.238;9.562;2022-11-20T14:55:31;3.40;89.40
3416;DHT22;1721;51.238;9.562;2022-11-20T14:58:03;3.40;89.60
3416;DHT22;1721;51.238;9.562;2022-11-20T15:00:29;3.50;89.80
3416;DHT22;1721;51.238;9.562;2022-11-20T15:02:56;3.50;89.90
3416;DHT22;1721;51.238;9.562;2022-11-20T15:05:24;3.60;90.00
3416;DHT22;1721;51.238;9.562;2022-11-20T15:08:14;3.60;90.00
3416;DHT22;1721;51.238;9.562;2022-11-20T15:10:39;3.70;90.10
3416;DHT22;1721;51.238;9.562;2022-11-20T15:13:15;3.60;90.00
3416;DHT22;1721;51.238;9.562;2022-11-20T15:15:49;3.40;90.20
3416;DHT22;1721;51.238;9.562;2022-11-20T15:18:20;3.30;90.00
3416;DHT22;1721;51.238;9.562;2022-11-20T15:20:47;3.40;90.30
3416;DHT22;1721;51.238;9.562;2022-11-20T15:23:15;3.50;90.10
3416;DHT22;1721;51.238;9.562;2022-11-20T15:25:43;3.20;90.30
3416;DHT22;1721;51.238;9.562;2022-11-20T15:30:44;3.10;90.80
3416;DHT22;1721;51.238;9.562;2022-11-20T15:33:10;3.20;90.80
3416;DHT22;1721;51.238;9.562;2022-11-20T15:35:36;3.20;90.60
3416;DHT22;1721;51.238;9.562;2022-11-20T15:38:02;3.40;90.60
3416;DHT22;1721;51.238;9.562;2022-11-20T15:40:27;3.50;90.30
3416;DHT22;1721;51.238;9.562;2022-11-20T15:42:53;3.70;90.30
3416;DHT22;1721;51.238;9.562;2022-11-20T15:45:45;3.70;90.00
3416;DHT22;1721;51.238;9.562;2022-11-20T15:48:21;3.70;90.20
3416;DHT22;1721;51.238;9.562;2022-11-20T15:50:55;3.50;90.10
3416;DHT22;1721;51.238;9.562;2022-11-20T15:53:22;3.50;90.30
3416;DHT22;1721;51.238;9.562;2022-11-20T15:55:47;3.60;90.40
3416;DHT22;1721;51.238;9.562;2022-11-20T15:58:13;3.60;90.70
3416;DHT22;1721;51.238;9.562;2022-11-20T16:00:39;3.80;90.20
3416;DHT22;1721;51.238;9.562;2022-11-20T16:03:04;4.00;90.20
3416;DHT22;1721;51.238;9.562;2022-11-20T16:05:30;4.20;90.30
3416;DHT22;1721;51.238;9.562;2022-11-20T16:07:56;4.30;90.30
3416;DHT22;1721;51.238;9.562;2022-11-20T16:10:22;4.40;90.10
3416;DHT22;1721;51.238;9.562;2022-11-20T16:12:48;4.40;90.00
3416;DHT22;1721;51.238;9.562;2022-11-20T16:15:32;4.50;89.20
3416;DHT22;1721;51.238;9.562;2022-11-20T16:18:12;3.90;89.20
3416;DHT22;1721;51.238;9.562;2022-11-20T16:20:38;4.00;90.00
3416;DHT22;1721;51.238;9.562;2022-11-20T16:23:05;3.80;89.30
3416;DHT22;1721;51.238;9.562;2022-11-20T16:25:31;3.60;89.30
3416;DHT22;1721;51.238;9.562;2022-11-20T16:27:56;3.50;90.00
3416;DHT22;1721;51.238;9.562;2022-11-20T16:30:22;3.10;90.30
3416;DHT22;1721;51.238;9.562;2022-11-20T16:32:48;2.90;90.90
3416;DHT22;1721;51.238;9.562;2022-11-20T16:35:13;3.00;91.70
3416;DHT22;1721;51.238;9.562;2022-11-20T16:37:39;3.40;91.20
3416;DHT22;1721;51.238;9.562;2022-11-20T16:40:05;3.60;90.80
3416;DHT22;1721;51.238;9.562;2022-11-20T16:42:34;3.90;90.70
3416;DHT22;1721;51.238;9.562;2022-11-20T16:45:00;4.00;90.50
3416;DHT22;1721;51.238;9.562;2022-11-20T16:47:25;4.00;90.60
3416;DHT22;1721;51.238;9.562;2022-11-20T16:49:51;4.10;90.60
3416;DHT22;1721;51.238;9.562;2022-11-20T16:52:16;4.10;90.20
3416;DHT22;1721;51.238;9.562;2022-11-20T16:54:42;3.80;90.10
3416;DHT22;1721;51.238;9.562;2022-11-20T16:57:08;4.00;90.40
3416;DHT22;1721;51.238;9.562;2022-11-20T16:59:33;4.10;90.60
3416;DHT22;1721;51.238;9.562;2022-11-20T17:01:59;4.20;90.70
3416;DHT22;1721;51.238;9.562;2022-11-20T17:04:24;4.20;90.60
3416;DHT22;1721;51.238;9.562;2022-11-20T17:06:50;4.20;90.50
3416;DHT22;1721;51.238;9.562;2022-11-20T17:09:16;4.20;90.70
3416;DHT22;1721;51.238;9.562;2022-11-20T17:11:41;4.40;90.70
3416;DHT22;1721;51.238;9.562;2022-11-20T17:14:07;4.40;90.50
3416;DHT22;1721;51.238;9.562;2022-11-20T17:16:35;4.60;90.40
3416;DHT22;1721;51.238;9.562;2022-11-20T17:19:01;4.50;90.30
3416;DHT22;1721;51.238;9.562;2022-11-20T17:21:28;4.50;90.50
3416;DHT22;1721;51.238;9.562;2022-11-20T17:23:54;4.50;90.60
3416;DHT22;1721;51.238;9.562;2022-11-20T17:26:23;4.40;91.00
3416;DHT22;1721;51.238;9.562;2022-11-20T17:28:53;4.50;90.70
3416;DHT22;1721;51.238;9.562;2022-11-20T17:31:19;4.30;91.00
3416;DHT22;1721;51.238;9.562;2022-11-20T17:33:45;4.30;91.20
3416;DHT22;1721;51.238;9.562;2022-11-20T17:36:13;4.10;91.40
3416;DHT22;1721;51.238;9.562;2022-11-20T17:38:40;3.90;92.00
3416;DHT22;1721;51.238;9.562;2022-11-20T17:41:20;4.00;92.00
3416;DHT22;1721;51.238;9.562;2022-11-20T17:43:47;4.10;92.00
3416;DHT22;1721;51.238;9.562;2022-11-20T17:46:21;4.20;91.80
3416;DHT22;1721;51.238;9.562;2022-11-20T17:48:48;4.10;91.70
3416;DHT22;1721;51.238;9.562;2022-11-20T17:51:19;4.00;91.70
3416;DHT22;1721;51.238;9.562;2022-11-20T17:53:48;4.10;91.60
3416;DHT22;1721;51.238;9.562;2022-11-20T17:56:15;4.10;91.80
3416;DHT22;1721;51.238;9.562;2022-11-20T17:58:59;4.20;91.60
3416;DHT22;1721;51.238;9.562;2022-11-20T18:01:25;4.00;91.50